sim
Sign-in with your pilot id or email,
or register
Callsign
Passwort

Schedule Details

Flight Number: DLH2285 (1)
Departure: Brussels Airport (EBBR) at 09:40
Arrival: Munich Airport (EDDM) at 10:55
Route: Lufthansa Passenger Schedule. Enter filed route here before submitting Pirep.

Weather Information
Getting current METAR information for EBBR 302350Z 16008KT CAVOK 15/13 Q1006 NOSIG
Getting current METAR information for EDDM 302350Z 06002KT 3000 0500NE R08L/0800N R08R/0500N BCFG NSC 05/04 Q1012 NOSIG

Schedule Frequency

Route Map